Date,TemperatureHighF,TemperatureAvgF,TemperatureLowF,DewpointHighF,DewpointAvgF,DewpointLowF,HumidityHigh,HumidityAvg,HumidityLow,PressureMaxIn,PressureMinIn,WindSpeedMaxMPH,WindSpeedAvgMPH,GustSpeedMaxMPH,PrecipitationSumIn
2013-1-1,81.0,71.4,63.3,65.8,61.3,57.9,100,72,47,30.20,30.06,12,3,18,0.00
2013-1-2,86.0,70.8,60.6,69.8,64.8,60.6,100,83,51,30.11,30.01,8,2,12,0.00
2013-1-3,84.6,72.8,65.8,69.1,64.8,54.0,100,79,38,30.18,30.04,9,2,17,0.00
2013-1-4,85.4,72.9,64.2,72.2,67.2,61.0,100,84,46,30.25,30.11,5,1,7,0.00
2013-1-5,85.3,74.3,68.8,72.1,69.2,64.9,100,86,53,30.26,30.17,8,3,13,0.00
2013-1-6,84.0,75.6,68.4,73.0,69.7,65.7,100,83,59,30.23,30.08,11,4,19,0.00
2013-1-7,86.5,73.3,66.1,71.9,67.6,59.6,100,84,48,30.18,30.08,7,2,11,0.00
2013-1-8,82.5,74.5,68.3,74.6,70.6,61.5,100,88,59,30.21,30.08,12,3,22,0.11
2013-1-9,83.4,77.4,74.0,73.5,70.5,67.4,93,80,65,30.28,30.16,14,6,22,0.00
2013-1-10,81.4,75.8,71.6,70.7,66.9,58.7,90,75,51,30.30,30.18,13,6,20,0.00
2013-1-11,81.9,75.6,71.3,72.5,68.8,63.7,100,80,56,30.26,30.16,14,5,20,0.00
2013-1-12,82.8,74.3,67.0,73.1,69.0,64.7,100,85,56,30.19,30.09,11,3,18,0.00
2013-1-13,82.9,73.8,67.4,70.7,65.6,60.0,100,77,51,30.14,30.07,13,4,20,0.00
2013-1-14,82.5,72.9,63.8,68.6,64.5,59.5,100,77,49,30.18,30.12,11,3,15,0.00
2013-1-15,82.6,70.7,62.3,71.9,65.8,62.3,100,86,54,30.15,30.05,11,2,16,0.00
2013-1-16,83.6,71.7,63.0,73.3,67.4,63.0,100,88,54,30.11,30.02,9,2,14,0.00
2013-1-17,80.1,69.9,61.3,73.4,66.5,54.7,100,90,62,30.12,30.00,13,3,22,0.03
2013-1-18,64.4,60.3,54.7,58.4,50.8,45.5,87,71,55,30.25,30.11,13,4,18,0.00
2013-1-19,78.8,66.4,61.3,66.7,63.0,57.8,100,90,57,30.22,30.09,6,2,10,0.18
2013-1-20,85.6,70.7,64.3,68.6,64.6,58.5,100,84,43,30.16,30.02,7,2,10,0.00
2013-1-21,83.7,71.6,65.1,71.7,67.1,64.1,100,87,56,30.08,30.01,12,2,18,0.06
2013-1-22,79.1,68.0,61.2,64.4,59.2,54.4,100,76,44,30.21,30.05,10,4,20,0.00
2013-1-23,78.3,66.1,59.3,60.2,55.6,48.7,96,72,39,30.29,30.17,10,3,17,0.00
2013-1-24,79.6,65.6,55.8,59.6,56.2,51.7,100,75,40,30.30,30.18,8,3,12,0.00
2013-1-25,80.2,66.1,56.5,61.1,54.6,45.2,100,71,31,30.28,30.17,9,2,15,0.00
2013-1-26,82.9,68.1,57.8,65.3,59.6,53.8,100,78,38,30.25,30.16,8,2,12,0.00
2013-1-27,82.7,71.4,63.4,67.6,65.0,61.8,100,82,54,30.28,30.19,12,4,18,0.00
2013-1-28,80.9,74.3,69.6,69.6,66.1,59.0,92,77,49,30.32,30.22,12,5,18,0.00
2013-1-29,81.1,74.4,69.1,72.0,69.2,65.6,100,85,65,30.24,30.12,12,5,20,0.00
2013-1-30,81.5,74.1,68.8,71.3,67.8,63.9,100,82,59,30.12,29.98,14,5,23,0.00
2013-1-31,76.2,68.3,61.3,73.9,63.5,43.8,100,86,52,30.17,29.96,11,4,16,0.00